sensor_id;sensor_type;location;lat;lon;timestamp;temperature;humidity
12043;DHT22;6082;49.306;12.862;2024-03-17T00:01:05;5.70;99.90
12043;DHT22;6082;49.306;12.862;2024-03-17T00:03:32;5.70;99.90
12043;DHT22;6082;49.306;12.862;2024-03-17T00:06:02;5.70;99.90
12043;DHT22;6082;49.306;12.862;2024-03-17T00:08:28;5.70;99.90
12043;DHT22;6082;49.306;12.862;2024-03-17T00:10:54;5.70;99.90
12043;DHT22;6082;49.306;12.862;2024-03-17T00:13:20;5.60;99.90
12043;DHT22;6082;49.306;12.862;2024-03-17T00:15:49;5.60;99.90
12043;DHT22;6082;49.306;12.862;2024-03-17T00:18:15;5.40;99.90
12043;DHT22;6082;49.306;12.862;2024-03-17T00:20:41;5.40;99.90
12043;DHT22;6082;49.306;12.862;2024-03-17T00:23:07;5.50;99.90
12043;DHT22;6082;49.306;12.862;2024-03-17T00:25:35;5.50;99.90
12043;DHT22;6082;49.306;12.862;2024-03-17T00:28:02;5.40;99.90
12043;DHT22;6082;49.306;12.862;2024-03-17T00:30:28;5.40;99.90
12043;DHT22;6082;49.306;12.862;2024-03-17T00:32:54;5.40;99.90
12043;DHT22;6082;49.306;12.862;2024-03-17T00:35:19;5.40;99.90
12043;DHT22;6082;49.306;12.862;2024-03-17T00:37:51;5.30;99.90
12043;DHT22;6082;49.306;12.862;2024-03-17T00:40:20;5.30;99.90
12043;DHT22;6082;49.306;12.862;2024-03-17T00:42:46;5.20;99.90
12043;DHT22;6082;49.306;12.862;2024-03-17T00:45:12;5.20;99.90
12043;DHT22;6082;49.306;12.862;2024-03-17T00:47:38;5.10;99.90
12043;DHT22;6082;49.306;12.862;2024-03-17T00:50:05;5.10;99.90
12043;DHT22;6082;49.306;12.862;2024-03-17T00:52:32;5.00;99.90
12043;DHT22;6082;49.306;12.862;2024-03-17T00:54:58;5.10;99.90
12043;DHT22;6082;49.306;12.862;2024-03-17T00:57:24;5.10;99.90
12043;DHT22;6082;49.306;12.862;2024-03-17T00:59:50;5.10;99.90
12043;DHT22;6082;49.306;12.862;2024-03-17T01:02:18;5.10;99.90
12043;DHT22;6082;49.306;12.862;2024-03-17T01:04:44;5.10;99.90
12043;DHT22;6082;49.306;12.862;2024-03-17T01:07:10;5.00;99.90
12043;DHT22;6082;49.306;12.862;2024-03-17T01:09:36;5.00;99.90
12043;DHT22;6082;49.306;12.862;2024-03-17T01:12:02;5.00;99.90
12043;DHT22;6082;49.306;12.862;2024-03-17T01:14:29;5.00;99.90
12043;DHT22;6082;49.306;12.862;2024-03-17T01:16:56;5.00;99.90
12043;DHT22;6082;49.306;12.862;2024-03-17T01:19:22;4.90;99.90
12043;DHT22;6082;49.306;12.862;2024-03-17T01:21:48;4.90;99.90
12043;DHT22;6082;49.306;12.862;2024-03-17T01:24:14;4.90;99.90
12043;DHT22;6082;49.306;12.862;2024-03-17T01:26:39;4.90;99.90
12043;DHT22;6082;49.306;12.862;2024-03-17T01:29:05;4.80;99.90
12043;DHT22;6082;49.306;12.862;2024-03-17T01:31:31;4.80;99.90
12043;DHT22;6082;49.306;12.862;2024-03-17T01:33:56;4.70;99.90
12043;DHT22;6082;49.306;12.862;2024-03-17T01:36:22;4.70;99.90
12043;DHT22;6082;49.306;12.862;2024-03-17T01:38:49;4.60;99.90
12043;DHT22;6082;49.306;12.862;2024-03-17T01:41:16;4.50;99.90
12043;DHT22;6082;49.306;12.862;2024-03-17T01:43:41;4.50;99.90
12043;DHT22;6082;49.306;12.862;2024-03-17T01:46:13;4.50;99.90
12043;DHT22;6082;49.306;12.862;2024-03-17T01:48:42;4.40;99.90
12043;DHT22;6082;49.306;12.862;2024-03-17T01:51:10;4.40;99.90
12043;DHT22;6082;49.306;12.862;2024-03-17T01:53:37;4.40;99.90
12043;DHT22;6082;49.306;12.862;2024-03-17T01:56:05;4.40;99.90
12043;DHT22;6082;49.306;12.862;2024-03-17T01:58:32;4.30;99.90
12043;DHT22;6082;49.306;12.862;2024-03-17T02:00:58;4.20;99.90
12043;DHT22;6082;49.306;12.862;2024-03-17T02:03:24;4.20;99.90
12043;DHT22;6082;49.306;12.862;2024-03-17T02:05:50;4.20;99.90
12043;DHT22;6082;49.306;12.862;2024-03-17T02:08:16;4.20;99.90
12043;DHT22;6082;49.306;12.862;2024-03-17T02:10:43;4.20;99.90
12043;DHT22;6082;49.306;12.862;2024-03-17T02:13:09;4.20;99.90
12043;DHT22;6082;49.306;12.862;2024-03-17T02:15:35;4.10;99.90
12043;DHT22;6082;49.306;12.862;2024-03-17T02:18:01;4.10;99.90
12043;DHT22;6082;49.306;12.862;2024-03-17T02:20:26;4.10;99.90
12043;DHT22;6082;49.306;12.862;2024-03-17T02:23:11;4.10;99.90
12043;DHT22;6082;49.306;12.862;2024-03-17T02:25:37;4.10;99.90
12043;DHT22;6082;49.306;12.862;2024-03-17T02:28:04;4.10;99.90
12043;DHT22;6082;49.306;12.862;2024-03-17T02:30:32;4.10;99.90
12043;DHT22;6082;49.306;12.862;2024-03-17T02:32:58;4.10;99.90
12043;DHT22;6082;49.306;12.862;2024-03-17T02:35:25;4.10;99.90
12043;DHT22;6082;49.306;12.862;2024-03-17T02:37:51;4.10;99.90
12043;DHT22;6082;49.306;12.862;2024-03-17T02:40:17;4.00;99.90
12043;DHT22;6082;49.306;12.862;2024-03-17T02:42:44;3.90;99.90
12043;DHT22;6082;49.306;12.862;2024-03-17T02:45:11;3.90;99.90
12043;DHT22;6082;49.306;12.862;2024-03-17T02:47:40;4.00;99.90
12043;DHT22;6082;49.306;12.862;2024-03-17T02:50:07;4.00;99.90
12043;DHT22;6082;49.306;12.862;2024-03-17T02:52:34;4.00;99.90
12043;DHT22;6082;49.306;12.862;2024-03-17T02:55:00;4.10;99.90
12043;DHT22;6082;49.306;12.862;2024-03-17T02:57:26;4.10;99.90
12043;DHT22;6082;49.306;12.862;2024-03-17T02:59:56;4.10;99.90
12043;DHT22;6082;49.306;12.862;2024-03-17T03:02:22;4.10;99.90
12043;DHT22;6082;49.306;12.862;2024-03-17T03:04:48;4.10;99.90
12043;DHT22;6082;49.306;12.862;2024-03-17T03:07:14;4.20;99.90
12043;DHT22;6082;49.306;12.862;2024-03-17T03:09:39;4.20;99.90
12043;DHT22;6082;49.306;12.862;2024-03-17T03:12:05;4.20;99.90
12043;DHT22;6082;49.306;12.862;2024-03-17T03:14:33;4.20;99.90
12043;DHT22;6082;49.306;12.862;2024-03-17T03:16:59;4.20;99.90
12043;DHT22;6082;49.306;12.862;2024-03-17T03:19:26;4.20;99.90
12043;DHT22;6082;49.306;12.862;2024-03-17T03:21:52;4.20;99.90
12043;DHT22;6082;49.306;12.862;2024-03-17T03:24:18;4.20;99.90
12043;DHT22;6082;49.306;12.862;2024-03-17T03:26:44;4.20;99.90
12043;DHT22;6082;49.306;12.862;2024-03-17T03:29:10;4.20;99.90
12043;DHT22;6082;49.306;12.862;2024-03-17T03:31:36;4.20;99.90
12043;DHT22;6082;49.306;12.862;2024-03-17T03:34:05;4.10;99.90
12043;DHT22;6082;49.306;12.862;2024-03-17T03:36:34;4.10;99.90
12043;DHT22;6082;49.306;12.862;2024-03-17T03:39:00;4.00;99.90
12043;DHT22;6082;49.306;12.862;2024-03-17T03:41:25;4.00;99.90
12043;DHT22;6082;49.306;12.862;2024-03-17T03:43:52;4.10;99.90
12043;DHT22;6082;49.306;12.862;2024-03-17T03:46:18;4.10;99.90
12043;DHT22;6082;49.306;12.862;2024-03-17T03:48:43;4.10;99.90
12043;DHT22;6082;49.306;12.862;2024-03-17T03:51:10;4.10;99.90
12043;DHT22;6082;49.306;12.862;2024-03-17T03:53:36;4.20;99.90
12043;DHT22;6082;49.306;12.862;2024-03-17T03:56:04;4.10;99.90
12043;DHT22;6082;49.306;12.862;2024-03-17T03:58:35;4.10;99.90
12043;DHT22;6082;49.306;12.862;2024-03-17T04:01:08;4.10;99.90
12043;DHT22;6082;49.306;12.862;2024-03-17T04:03:34;4.20;99.90
12043;DHT22;6082;49.306;12.862;2024-03-17T04:08:31;4.20;99.90
12043;DHT22;6082;49.306;12.862;2024-03-17T04:10:57;4.20;99.90
12043;DHT22;6082;49.306;12.862;2024-03-17T04:13:23;4.20;99.90
12043;DHT22;6082;49.306;12.862;2024-03-17T04:15:49;4.20;99.90
12043;DHT22;6082;49.306;12.862;2024-03-17T04:18:15;4.10;99.90
12043;DHT22;6082;49.306;12.862;2024-03-17T04:20:43;4.20;99.90
12043;DHT22;6082;49.306;12.862;2024-03-17T04:23:08;4.10;99.90
12043;DHT22;6082;49.306;12.862;2024-03-17T04:25:34;4.10;99.90
12043;DHT22;6082;49.306;12.862;2024-03-17T04:28:00;4.10;99.90
12043;DHT22;6082;49.306;12.862;2024-03-17T04:30:25;4.10;99.90
12043;DHT22;6082;49.306;12.862;2024-03-17T04:32:51;4.10;99.90
12043;DHT22;6082;49.306;12.862;2024-03-17T04:35:17;4.10;99.90
12043;DHT22;6082;49.306;12.862;2024-03-17T04:37:43;4.10;99.90
12043;DHT22;6082;49.306;12.862;2024-03-17T04:40:09;4.10;99.90
12043;DHT22;6082;49.306;12.862;2024-03-17T04:42:35;4.10;99.90
12043;DHT22;6082;49.306;12.862;2024-03-17T04:45:01;4.10;99.90
12043;DHT22;6082;49.306;12.862;2024-03-17T04:47:27;4.10;99.90
12043;DHT22;6082;49.306;12.862;2024-03-17T04:49:53;4.10;99.90
12043;DHT22;6082;49.306;12.862;2024-03-17T04:52:18;4.10;99.90
12043;DHT22;6082;49.306;12.862;2024-03-17T04:54:44;4.10;99.90
12043;DHT22;6082;49.306;12.862;2024-03-17T04:57:10;4.10;99.90
12043;DHT22;6082;49.306;12.862;2024-03-17T04:59:35;4.10;99.90
12043;DHT22;6082;49.306;12.862;2024-03-17T05:02:01;4.10;99.90
12043;DHT22;6082;49.306;12.862;2024-03-17T05:04:28;4.10;99.90
12043;DHT22;6082;49.306;12.862;2024-03-17T05:06:54;4.00;99.90
12043;DHT22;6082;49.306;12.862;2024-03-17T05:09:19;4.00;99.90
12043;DHT22;6082;49.306;12.862;2024-03-17T05:11:46;4.00;99.90
12043;DHT22;6082;49.306;12.862;2024-03-17T05:14:13;4.00;99.90
12043;DHT22;6082;49.306;12.862;2024-03-17T05:16:38;4.00;99.90
12043;DHT22;6082;49.306;12.862;2024-03-17T05:19:04;4.10;99.90
12043;DHT22;6082;49.306;12.862;2024-03-17T05:21:30;4.10;99.90
12043;DHT22;6082;49.306;12.862;2024-03-17T05:23:57;4.10;99.90
12043;DHT22;6082;49.306;12.862;2024-03-17T05:26:26;4.10;99.90
12043;DHT22;6082;49.306;12.862;2024-03-17T05:28:51;4.10;99.90
12043;DHT22;6082;49.306;12.862;2024-03-17T05:31:18;4.10;99.90
12043;DHT22;6082;49.306;12.862;2024-03-17T05:33:44;4.10;99.90
12043;DHT22;6082;49.306;12.862;2024-03-17T05:36:10;4.10;99.90
12043;DHT22;6082;49.306;12.862;2024-03-17T05:38:36;4.00;99.90
12043;DHT22;6082;49.306;12.862;2024-03-17T05:41:06;4.00;99.90
12043;DHT22;6082;49.306;12.862;2024-03-17T05:43:35;4.00;99.90
12043;DHT22;6082;49.306;12.862;2024-03-17T05:46:06;4.00;99.90
12043;DHT22;6082;49.306;12.862;2024-03-17T05:48:36;4.00;99.90
12043;DHT22;6082;49.306;12.862;2024-03-17T05:51:05;4.00;99.90
12043;DHT22;6082;49.306;12.862;2024-03-17T05:53:31;4.10;99.90
12043;DHT22;6082;49.306;12.862;2024-03-17T05:56:02;4.10;99.90
12043;DHT22;6082;49.306;12.862;2024-03-17T05:58:28;4.10;99.90
12043;DHT22;6082;49.306;12.862;2024-03-17T06:00:54;4.10;99.90
12043;DHT22;6082;49.306;12.862;2024-03-17T06:03:20;4.10;99.90
12043;DHT22;6082;49.306;12.862;2024-03-17T06:05:47;4.10;99.90
12043;DHT22;6082;49.306;12.862;2024-03-17T06:08:14;4.10;99.90
12043;DHT22;6082;49.306;12.862;2024-03-17T06:10:45;4.20;99.90
12043;DHT22;6082;49.306;12.862;2024-03-17T06:13:12;4.20;99.90
12043;DHT22;6082;49.306;12.862;2024-03-17T06:15:39;4.20;99.90
12043;DHT22;6082;49.306;12.862;2024-03-17T06:18:05;4.20;99.90
12043;DHT22;6082;49.306;12.862;2024-03-17T06:20:34;4.20;99.90
12043;DHT22;6082;49.306;12.862;2024-03-17T06:23:00;4.20;99.90
12043;DHT22;6082;49.306;12.862;2024-03-17T06:25:26;4.30;99.90
12043;DHT22;6082;49.306;12.862;2024-03-17T06:27:53;4.30;99.90
12043;DHT22;6082;49.306;12.862;2024-03-17T06:30:20;4.30;99.90
12043;DHT22;6082;49.306;12.862;2024-03-17T06:32:47;4.40;99.90
12043;DHT22;6082;49.306;12.862;2024-03-17T06:35:13;4.40;99.90
12043;DHT22;6082;49.306;12.862;2024-03-17T06:37:41;4.40;99.90
12043;DHT22;6082;49.306;12.862;2024-03-17T06:40:09;4.50;99.90
12043;DHT22;6082;49.306;12.862;2024-03-17T06:42:38;4.50;99.90
12043;DHT22;6082;49.306;12.862;2024-03-17T06:45:05;4.60;99.90
12043;DHT22;6082;49.306;12.862;2024-03-17T06:47:31;4.60;99.90
12043;DHT22;6082;49.306;12.862;2024-03-17T06:49:56;4.70;99.90
12043;DHT22;6082;49.306;12.862;2024-03-17T06:52:22;4.70;99.90
12043;DHT22;6082;49.306;12.862;2024-03-17T06:54:48;4.70;99.90
12043;DHT22;6082;49.306;12.862;2024-03-17T06:57:17;4.80;99.90
12043;DHT22;6082;49.306;12.862;2024-03-17T06:59:42;4.80;99.90
12043;DHT22;6082;49.306;12.862;2024-03-17T07:02:10;4.90;99.90
12043;DHT22;6082;49.306;12.862;2024-03-17T07:04:38;4.80;99.90
12043;DHT22;6082;49.306;12.862;2024-03-17T07:07:03;4.90;99.90
12043;DHT22;6082;49.306;12.862;2024-03-17T07:09:29;4.90;99.90
12043;DHT22;6082;49.306;12.862;2024-03-17T07:11:55;5.00;99.90
12043;DHT22;6082;49.306;12.862;2024-03-17T07:14:21;5.00;99.90
12043;DHT22;6082;49.306;12.862;2024-03-17T07:16:47;5.10;99.90
12043;DHT22;6082;49.306;12.862;2024-03-17T07:19:12;5.10;99.90
12043;DHT22;6082;49.306;12.862;2024-03-17T07:21:38;5.20;99.90
12043;DHT22;6082;49.306;12.862;2024-03-17T07:24:04;5.20;99.90
12043;DHT22;6082;49.306;12.862;2024-03-17T07:26:30;5.30;99.90
12043;DHT22;6082;49.306;12.862;2024-03-17T07:28:56;5.30;99.90
12043;DHT22;6082;49.306;12.862;2024-03-17T07:31:22;5.30;99.90
12043;DHT22;6082;49.306;12.862;2024-03-17T07:33:48;5.40;99.90
12043;DHT22;6082;49.306;12.862;2024-03-17T07:36:14;5.50;99.90
12043;DHT22;6082;49.306;12.862;2024-03-17T07:38:40;5.50;99.90
12043;DHT22;6082;49.306;12.862;2024-03-17T07:41:07;5.60;99.90
12043;DHT22;6082;49.306;12.862;2024-03-17T07:43:35;5.60;99.90
12043;DHT22;6082;49.306;12.862;2024-03-17T07:46:09;5.70;99.90
12043;DHT22;6082;49.306;12.862;2024-03-17T07:48:38;5.80;99.90
12043;DHT22;6082;49.306;12.862;2024-03-17T07:51:12;5.80;99.90
12043;DHT22;6082;49.306;12.862;2024-03-17T07:53:39;5.90;99.90
12043;DHT22;6082;49.306;12.862;2024-03-17T07:56:09;5.90;99.90
12043;DHT22;6082;49.306;12.862;2024-03-17T07:58:37;6.10;99.90
12043;DHT22;6082;49.306;12.862;2024-03-17T08:01:07;6.10;99.90
12043;DHT22;6082;49.306;12.862;2024-03-17T08:03:36;6.20;99.90
12043;DHT22;6082;49.306;12.862;2024-03-17T08:06:03;6.30;99.90
12043;DHT22;6082;49.306;12.862;2024-03-17T08:08:30;6.50;99.90
12043;DHT22;6082;49.306;12.862;2024-03-17T08:10:56;6.60;99.90
12043;DHT22;6082;49.306;12.862;2024-03-17T08:13:22;6.70;99.90
12043;DHT22;6082;49.306;12.862;2024-03-17T08:16:15;6.80;99.90
12043;DHT22;6082;49.306;12.862;2024-03-17T08:18:42;6.90;99.90
12043;DHT22;6082;49.306;12.862;2024-03-17T08:21:11;7.00;99.90
12043;DHT22;6082;49.306;12.862;2024-03-17T08:23:43;7.10;99.90
12043;DHT22;6082;49.306;12.862;2024-03-17T08:26:11;7.30;99.90
12043;DHT22;6082;49.306;12.862;2024-03-17T08:28:37;7.50;99.90
12043;DHT22;6082;49.306;12.862;2024-03-17T08:31:03;7.60;99.90
12043;DHT22;6082;49.306;12.862;2024-03-17T08:33:30;7.70;99.90
12043;DHT22;6082;49.306;12.862;2024-03-17T08:38:27;7.80;99.90
12043;DHT22;6082;49.306;12.862;2024-03-17T08:40:54;7.80;99.90
12043;DHT22;6082;49.306;12.862;2024-03-17T08:43:21;7.90;99.90
12043;DHT22;6082;49.306;12.862;2024-03-17T08:46:07;7.90;99.90
12043;DHT22;6082;49.306;12.862;2024-03-17T08:48:35;7.90;99.90
12043;DHT22;6082;49.306;12.862;2024-03-17T08:51:05;7.90;99.90
12043;DHT22;6082;49.306;12.862;2024-03-17T08:53:32;7.80;99.90
12043;DHT22;6082;49.306;12.862;2024-03-17T08:55:58;7.90;99.90
12043;DHT22;6082;49.306;12.862;2024-03-17T08:58:25;8.00;99.90
12043;DHT22;6082;49.306;12.862;2024-03-17T09:00:51;8.10;99.90
12043;DHT22;6082;49.306;12.862;2024-03-17T09:03:17;8.10;99.90
12043;DHT22;6082;49.306;12.862;2024-03-17T09:05:45;8.10;99.90
12043;DHT22;6082;49.306;12.862;2024-03-17T09:08:22;8.10;99.90
12043;DHT22;6082;49.306;12.862;2024-03-17T09:10:50;8.20;99.90
12043;DHT22;6082;49.306;12.862;2024-03-17T09:13:21;8.20;99.90
12043;DHT22;6082;49.306;12.862;2024-03-17T09:15:58;8.30;99.90
12043;DHT22;6082;49.306;12.862;2024-03-17T09:18:31;8.40;99.90
12043;DHT22;6082;49.306;12.862;2024-03-17T09:21:07;8.40;99.90
12043;DHT22;6082;49.306;12.862;2024-03-17T09:23:33;8.50;99.90
12043;DHT22;6082;49.306;12.862;2024-03-17T09:28:29;8.50;99.90
12043;DHT22;6082;49.306;12.862;2024-03-17T09:30:56;8.60;99.90
12043;DHT22;6082;49.306;12.862;2024-03-17T09:33:23;8.60;99.90
12043;DHT22;6082;49.306;12.862;2024-03-17T09:35:59;8.80;99.90
12043;DHT22;6082;49.306;12.862;2024-03-17T09:38:26;8.70;99.90
12043;DHT22;6082;49.306;12.862;2024-03-17T09:40:52;8.70;99.90
12043;DHT22;6082;49.306;12.862;2024-03-17T09:43:21;8.80;99.90
12043;DHT22;6082;49.306;12.862;2024-03-17T09:45:47;9.00;99.90
12043;DHT22;6082;49.306;12.862;2024-03-17T09:48:17;9.10;99.90
12043;DHT22;6082;49.306;12.862;2024-03-17T09:51:04;9.20;99.90
12043;DHT22;6082;49.306;12.862;2024-03-17T09:53:31;9.30;99.90
12043;DHT22;6082;49.306;12.862;2024-03-17T09:56:11;9.20;99.90
12043;DHT22;6082;49.306;12.862;2024-03-17T09:58:37;9.20;99.90
12043;DHT22;6082;49.306;12.862;2024-03-17T10:01:12;9.20;99.90
12043;DHT22;6082;49.306;12.862;2024-03-17T10:03:52;9.30;99.90
12043;DHT22;6082;49.306;12.862;2024-03-17T10:06:23;9.40;99.90
12043;DHT22;6082;49.306;12.862;2024-03-17T10:09:01;9.50;99.90
12043;DHT22;6082;49.306;12.862;2024-03-17T10:11:35;9.60;99.90
12043;DHT22;6082;49.306;12.862;2024-03-17T10:14:03;9.70;99.90
12043;DHT22;6082;49.306;12.862;2024-03-17T10:16:30;9.80;99.90
12043;DHT22;6082;49.306;12.862;2024-03-17T10:19:09;10.10;99.90
12043;DHT22;6082;49.306;12.862;2024-03-17T10:21:40;10.20;99.90
12043;DHT22;6082;49.306;12.862;2024-03-17T10:26:48;10.30;99.90
12043;DHT22;6082;49.306;12.862;2024-03-17T10:29:28;10.30;99.90
12043;DHT22;6082;49.306;12.862;2024-03-17T10:32:03;10.40;99.90
12043;DHT22;6082;49.306;12.862;2024-03-17T10:34:30;10.50;99.90
12043;DHT22;6082;49.306;12.862;2024-03-17T10:37:14;10.50;99.90
12043;DHT22;6082;49.306;12.862;2024-03-17T10:39:42;10.60;99.90
12043;DHT22;6082;49.306;12.862;2024-03-17T10:42:10;10.60;99.90
12043;DHT22;6082;49.306;12.862;2024-03-17T10:44:37;10.60;99.90
12043;DHT22;6082;49.306;12.862;2024-03-17T10:47:04;10.60;99.90
12043;DHT22;6082;49.306;12.862;2024-03-17T10:49:38;10.70;99.90
12043;DHT22;6082;49.306;12.862;2024-03-17T10:52:06;10.70;99.90
12043;DHT22;6082;49.306;12.862;2024-03-17T10:54:32;10.70;99.90
12043;DHT22;6082;49.306;12.862;2024-03-17T11:00:05;10.70;99.90
12043;DHT22;6082;49.306;12.862;2024-03-17T11:02:34;10.80;99.90
12043;DHT22;6082;49.306;12.862;2024-03-17T11:05:24;10.90;99.90
12043;DHT22;6082;49.306;12.862;2024-03-17T11:07:54;10.80;99.90
12043;DHT22;6082;49.306;12.862;2024-03-17T11:10:22;10.80;99.90
12043;DHT22;6082;49.306;12.862;2024-03-17T11:12:54;10.80;99.90
12043;DHT22;6082;49.306;12.862;2024-03-17T11:20:40;11.10;99.90
12043;DHT22;6082;49.306;12.862;2024-03-17T11:23:07;11.10;99.90
12043;DHT22;6082;49.306;12.862;2024-03-17T11:25:38;11.20;99.90
12043;DHT22;6082;49.306;12.862;2024-03-17T11:28:09;11.20;99.90
12043;DHT22;6082;49.306;12.862;2024-03-17T11:39:02;11.60;99.90
12043;DHT22;6082;49.306;12.862;2024-03-17T11:41:38;11.70;99.90
12043;DHT22;6082;49.306;12.862;2024-03-17T11:49:37;11.80;99.90
12043;DHT22;6082;49.306;12.862;2024-03-17T11:52:16;12.00;99.90
12043;DHT22;6082;49.306;12.862;2024-03-17T11:54:46;12.00;99.90
12043;DHT22;6082;49.306;12.862;2024-03-17T11:57:24;12.10;99.90
12043;DHT22;6082;49.306;12.862;2024-03-17T11:59:50;12.20;99.90
12043;DHT22;6082;49.306;12.862;2024-03-17T12:02:27;12.20;99.90
12043;DHT22;6082;49.306;12.862;2024-03-17T12:04:56;12.30;99.90
12043;DHT22;6082;49.306;12.862;2024-03-17T12:07:22;12.30;99.90
12043;DHT22;6082;49.306;12.862;2024-03-17T12:09:53;12.30;99.90
12043;DHT22;6082;49.306;12.862;2024-03-17T12:12:24;12.30;99.90
12043;DHT22;6082;49.306;12.862;2024-03-17T12:14:56;12.30;99.90
12043;DHT22;6082;49.306;12.862;2024-03-17T12:17:23;12.30;99.90
12043;DHT22;6082;49.306;12.862;2024-03-17T12:19:49;12.20;99.90
12043;DHT22;6082;49.306;12.862;2024-03-17T12:22:23;12.10;99.90
12043;DHT22;6082;49.306;12.862;2024-03-17T12:24:54;12.20;99.90
12043;DHT22;6082;49.306;12.862;2024-03-17T12:27:24;12.20;99.90
12043;DHT22;6082;49.306;12.862;2024-03-17T12:29:54;12.30;99.90
12043;DHT22;6082;49.306;12.862;2024-03-17T12:32:24;12.40;99.90
12043;DHT22;6082;49.306;12.862;2024-03-17T12:34:55;12.60;99.90
12043;DHT22;6082;49.306;12.862;2024-03-17T12:37:26;12.70;99.90
12043;DHT22;6082;49.306;12.862;2024-03-17T12:39:57;12.70;99.90
12043;DHT22;6082;49.306;12.862;2024-03-17T12:42:27;12.80;99.90
12043;DHT22;6082;49.306;12.862;2024-03-17T12:45:01;12.90;99.90
12043;DHT22;6082;49.306;12.862;2024-03-17T12:47:28;12.90;99.90
12043;DHT22;6082;49.306;12.862;2024-03-17T12:49:56;13.00;99.90
12043;DHT22;6082;49.306;12.862;2024-03-17T12:52:26;13.10;99.90
12043;DHT22;6082;49.306;12.862;2024-03-17T12:55:01;13.20;99.90
12043;DHT22;6082;49.306;12.862;2024-03-17T12:57:46;13.20;99.90
12043;DHT22;6082;49.306;12.862;2024-03-17T13:00:41;13.30;99.90
12043;DHT22;6082;49.306;12.862;2024-03-17T13:03:08;13.30;99.90
12043;DHT22;6082;49.306;12.862;2024-03-17T13:05:34;13.30;99.90
12043;DHT22;6082;49.306;12.862;2024-03-17T13:08:00;13.40;99.90
12043;DHT22;6082;49.306;12.862;2024-03-17T13:10:28;13.30;99.90
12043;DHT22;6082;49.306;12.862;2024-03-17T13:13:03;13.30;99.90
12043;DHT22;6082;49.306;12.862;2024-03-17T13:15:32;13.30;99.90
12043;DHT22;6082;49.306;12.862;2024-03-17T13:18:00;13.30;99.90
12043;DHT22;6082;49.306;12.862;2024-03-17T13:20:26;13.30;99.90
12043;DHT22;6082;49.306;12.862;2024-03-17T13:22:52;13.30;99.90
12043;DHT22;6082;49.306;12.862;2024-03-17T13:25:20;13.20;99.90
12043;DHT22;6082;49.306;12.862;2024-03-17T13:27:47;13.10;99.90
12043;DHT22;6082;49.306;12.862;2024-03-17T13:30:14;13.00;99.90
12043;DHT22;6082;49.306;12.862;2024-03-17T13:32:41;12.90;99.90
12043;DHT22;6082;49.306;12.862;2024-03-17T13:35:20;12.80;99.90
12043;DHT22;6082;49.306;12.862;2024-03-17T13:37:47;12.70;99.90
12043;DHT22;6082;49.306;12.862;2024-03-17T13:40:15;12.60;99.90
12043;DHT22;6082;49.306;12.862;2024-03-17T13:42:44;12.60;99.90
12043;DHT22;6082;49.306;12.862;2024-03-17T13:45:11;12.50;99.90
12043;DHT22;6082;49.306;12.862;2024-03-17T13:47:38;12.50;99.90
12043;DHT22;6082;49.306;12.862;2024-03-17T13:50:04;12.50;99.90
12043;DHT22;6082;49.306;12.862;2024-03-17T13:52:34;12.50;99.90
12043;DHT22;6082;49.306;12.862;2024-03-17T13:55:00;12.50;99.90
12043;DHT22;6082;49.306;12.862;2024-03-17T13:57:26;12.50;99.90
12043;DHT22;6082;49.306;12.862;2024-03-17T13:59:51;12.60;99.90
12043;DHT22;6082;49.306;12.862;2024-03-17T14:02:17;12.70;99.90
12043;DHT22;6082;49.306;12.862;2024-03-17T14:04:44;12.70;99.90
12043;DHT22;6082;49.306;12.862;2024-03-17T14:07:10;12.70;99.90
12043;DHT22;6082;49.306;12.862;2024-03-17T14:09:36;12.60;99.90
12043;DHT22;6082;49.306;12.862;2024-03-17T14:12:02;12.60;99.90
12043;DHT22;6082;49.306;12.862;2024-03-17T14:14:28;12.60;99.90
12043;DHT22;6082;49.306;12.862;2024-03-17T14:16:54;12.70;99.90
12043;DHT22;6082;49.306;12.862;2024-03-17T14:19:19;12.60;99.90
12043;DHT22;6082;49.306;12.862;2024-03-17T14:21:45;12.60;99.90
12043;DHT22;6082;49.306;12.862;2024-03-17T14:24:11;12.50;99.90
12043;DHT22;6082;49.306;12.862;2024-03-17T14:26:36;12.50;99.90
12043;DHT22;6082;49.306;12.862;2024-03-17T14:29:02;12.50;99.90
12043;DHT22;6082;49.306;12.862;2024-03-17T14:31:32;12.50;99.90
12043;DHT22;6082;49.306;12.862;2024-03-17T14:33:59;12.60;99.90
12043;DHT22;6082;49.306;12.862;2024-03-17T14:36:26;12.50;99.90
12043;DHT22;6082;49.306;12.862;2024-03-17T14:38:53;12.60;99.90
12043;DHT22;6082;49.306;12.862;2024-03-17T14:41:19;12.60;99.90
12043;DHT22;6082;49.306;12.862;2024-03-17T14:43:45;12.70;99.90
12043;DHT22;6082;49.306;12.862;2024-03-17T14:46:12;12.60;99.90
12043;DHT22;6082;49.306;12.862;2024-03-17T14:48:42;12.60;99.90
12043;DHT22;6082;49.306;12.862;2024-03-17T14:51:09;12.60;99.90
12043;DHT22;6082;49.306;12.862;2024-03-17T14:53:34;12.50;99.90
12043;DHT22;6082;49.306;12.862;2024-03-17T14:56:02;12.50;99.90
12043;DHT22;6082;49.306;12.862;2024-03-17T14:58:29;12.50;99.90
12043;DHT22;6082;49.306;12.862;2024-03-17T15:00:55;12.50;99.90
12043;DHT22;6082;49.306;12.862;2024-03-17T15:03:20;12.50;99.90
12043;DHT22;6082;49.306;12.862;2024-03-17T15:05:46;12.50;99.90
12043;DHT22;6082;49.306;12.862;2024-03-17T15:08:12;12.50;99.90
12043;DHT22;6082;49.306;12.862;2024-03-17T15:10:38;12.40;99.90
12043;DHT22;6082;49.306;12.862;2024-03-17T15:13:04;12.30;99.90
12043;DHT22;6082;49.306;12.862;2024-03-17T15:15:29;12.30;99.90
12043;DHT22;6082;49.306;12.862;2024-03-17T15:17:55;12.20;99.90
12043;DHT22;6082;49.306;12.862;2024-03-17T15:20:21;12.20;99.90
12043;DHT22;6082;49.306;12.862;2024-03-17T15:22:48;12.10;99.90
12043;DHT22;6082;49.306;12.862;2024-03-17T15:25:15;12.00;99.90
12043;DHT22;6082;49.306;12.862;2024-03-17T15:27:45;11.90;99.90
12043;DHT22;6082;49.306;12.862;2024-03-17T15:30:15;11.90;99.90
12043;DHT22;6082;49.306;12.862;2024-03-17T15:32:44;11.90;99.90
12043;DHT22;6082;49.306;12.862;2024-03-17T15:35:10;11.90;99.90
12043;DHT22;6082;49.306;12.862;2024-03-17T15:37:39;11.80;99.90
12043;DHT22;6082;49.306;12.862;2024-03-17T15:40:06;11.80;99.90
12043;DHT22;6082;49.306;12.862;2024-03-17T15:42:32;11.70;99.90
12043;DHT22;6082;49.306;12.862;2024-03-17T15:44:58;11.70;99.90
12043;DHT22;6082;49.306;12.862;2024-03-17T15:47:25;11.70;99.90
12043;DHT22;6082;49.306;12.862;2024-03-17T15:49:50;11.70;99.90
12043;DHT22;6082;49.306;12.862;2024-03-17T15:52:16;11.60;99.90
12043;DHT22;6082;49.306;12.862;2024-03-17T15:54:42;11.60;99.90
12043;DHT22;6082;49.306;12.862;2024-03-17T15:57:08;11.60;99.90
12043;DHT22;6082;49.306;12.862;2024-03-17T15:59:33;11.60;99.90
12043;DHT22;6082;49.306;12.862;2024-03-17T16:02:00;11.60;99.90
12043;DHT22;6082;49.306;12.862;2024-03-17T16:04:26;11.60;99.90
12043;DHT22;6082;49.306;12.862;2024-03-17T16:06:53;11.50;99.90
12043;DHT22;6082;49.306;12.862;2024-03-17T16:09:20;11.50;99.90
12043;DHT22;6082;49.306;12.862;2024-03-17T16:11:46;11.50;99.90
12043;DHT22;6082;49.306;12.862;2024-03-17T16:14:13;11.50;99.90
12043;DHT22;6082;49.306;12.862;2024-03-17T16:16:40;11.40;99.90